Time;durP1;ratioP1;P1;durP2;ratioP2;P2;SDS_P1;SDS_P2;PMS_P1;PMS_P2;Temp;Humidity;BMP_temperature;BMP_pressure;BME280_temperature;BME280_humidity;BME280_pressure;Samples;Min_cycle;Max_cycle;Signal;HPM_P1;HPM_P2
2021/11/21 00:00:57;;;;;;;50.40;24.03;;;8.30;87.40;;;;;;4995409;28;20057;-66
2021/11/21 00:03:23;;;;;;;36.83;24.77;;;8.20;87.50;;;;;;4995378;28;20045;-66
2021/11/21 00:05:49;;;;;;;49.43;27.30;;;8.20;87.70;;;;;;4995629;28;20022;-65
2021/11/21 00:08:15;;;;;;;51.07;26.90;;;8.20;88.00;;;;;;4978056;28;20053;-67
2021/11/21 00:10:41;;;;;;;52.27;27.83;;;8.10;88.10;;;;;;4995258;28;20112;-65
2021/11/21 00:13:08;;;;;;;67.57;27.93;;;8.10;88.40;;;;;;4995524;28;20022;-66
2021/11/21 00:15:34;;;;;;;53.83;27.00;;;8.10;88.50;;;;;;4995495;28;20029;-66
2021/11/21 00:18:00;;;;;;;65.57;26.90;;;8.10;88.70;;;;;;4995359;28;20471;-65
2021/11/21 00:20:26;;;;;;;84.27;26.37;;;8.10;88.50;;;;;;4995268;28;20037;-67
2021/11/21 00:22:52;;;;;;;62.47;28.60;;;8.10;88.50;;;;;;4995351;28;20121;-66
2021/11/21 00:25:18;;;;;;;61.80;27.33;;;8.10;88.60;;;;;;4995421;28;20380;-65
2021/11/21 00:27:44;;;;;;;106.37;27.67;;;8.10;88.40;;;;;;4995378;28;20033;-70
2021/11/21 00:30:10;;;;;;;60.17;27.13;;;8.10;88.40;;;;;;4994966;28;20493;-65
2021/11/21 00:32:36;;;;;;;84.73;26.63;;;8.10;88.50;;;;;;4995119;28;20103;-66
2021/11/21 00:35:02;;;;;;;80.23;25.17;;;8.10;88.40;;;;;;4995091;28;20022;-66
2021/11/21 00:37:28;;;;;;;57.40;24.87;;;8.00;88.80;;;;;;4994808;28;20459;-66
2021/11/21 00:39:56;;;;;;;59.33;25.13;;;8.10;89.00;;;;;;4977323;28;20084;-65
2021/11/21 00:42:23;;;;;;;60.70;25.27;;;8.10;89.10;;;;;;4994692;28;20035;-66
2021/11/21 00:44:49;;;;;;;85.23;26.40;;;8.20;89.00;;;;;;4994882;28;20026;-73
2021/11/21 00:47:14;;;;;;;78.77;25.77;;;8.10;88.90;;;;;;4994812;28;20027;-66
2021/11/21 00:49:41;;;;;;;74.70;26.20;;;8.10;88.80;;;;;;4994620;28;20026;-66
2021/11/21 00:52:08;;;;;;;89.87;26.57;;;8.10;88.90;;;;;;4994582;28;20022;-66
2021/11/21 00:57:07;;;;;;;119.47;25.30;;;8.10;89.70;;;;;;4994673;28;20041;-67
2021/11/21 00:59:33;;;;;;;102.90;25.50;;;8.20;89.40;;;;;;4994323;28;20285;-65
2021/11/21 01:02:01;;;;;;;70.07;25.10;;;8.20;89.60;;;;;;4994536;28;20035;-65
2021/11/21 01:04:27;;;;;;;45.40;23.87;;;8.20;89.60;;;;;;4994562;28;20030;-66
2021/11/21 01:06:53;;;;;;;68.93;23.40;;;8.20;89.40;;;;;;4994385;28;20474;-66
2021/11/21 01:09:23;;;;;;;71.37;23.27;;;8.10;88.90;;;;;;4993957;28;20034;-66
2021/11/21 01:11:49;;;;;;;99.07;24.93;;;8.10;89.30;;;;;;4994150;28;20030;-66
2021/11/21 01:14:15;;;;;;;142.63;24.13;;;8.10;89.30;;;;;;4994160;28;20419;-66
2021/11/21 01:16:42;;;;;;;70.03;23.57;;;8.00;89.40;;;;;;4994503;28;20014;-66
2021/11/21 01:19:08;;;;;;;79.97;24.10;;;7.90;90.10;;;;;;4994111;28;20526;-65
2021/11/21 01:21:34;;;;;;;72.10;24.60;;;7.90;90.30;;;;;;4993813;28;20031;-66
2021/11/21 01:24:00;;;;;;;64.83;23.30;;;8.00;90.30;;;;;;4994237;28;20022;-66
2021/11/21 01:26:27;;;;;;;64.03;24.73;;;8.00;90.30;;;;;;4994157;28;20493;-65
2021/11/21 01:28:53;;;;;;;55.80;24.43;;;8.00;90.30;;;;;;4993897;28;20557;-66
2021/11/21 01:31:19;;;;;;;63.70;26.60;;;8.00;90.10;;;;;;4994014;28;20096;-65
2021/11/21 01:33:45;;;;;;;73.93;24.47;;;8.00;90.20;;;;;;4994334;28;20229;-65
2021/11/21 01:36:11;;;;;;;83.20;24.00;;;8.00;90.20;;;;;;4994001;28;20081;-65
2021/11/21 01:38:37;;;;;;;76.23;25.63;;;8.10;90.20;;;;;;4993722;28;20434;-66
2021/11/21 01:41:04;;;;;;;68.50;25.47;;;8.10;90.20;;;;;;4993749;28;20081;-65
2021/11/21 01:43:30;;;;;;;80.30;24.83;;;8.10;90.20;;;;;;4993544;28;20505;-66
2021/11/21 01:45:56;;;;;;;92.93;27.23;;;8.10;90.50;;;;;;4993924;28;20054;-65
2021/11/21 01:48:22;;;;;;;52.73;27.50;;;8.10;90.30;;;;;;4993713;28;20046;-66
2021/11/21 01:50:48;;;;;;;53.03;26.57;;;8.20;90.30;;;;;;4993694;28;20057;-67
2021/11/21 01:53:14;;;;;;;65.30;27.83;;;8.20;90.30;;;;;;4993756;28;20069;-67
2021/11/21 01:55:40;;;;;;;61.37;26.63;;;8.20;90.20;;;;;;4993624;28;20037;-66
2021/11/21 01:58:07;;;;;;;55.63;25.97;;;8.20;90.20;;;;;;4992204;28;20514;-66
2021/11/21 02:00:40;;;;;;;48.60;24.80;;;8.10;90.10;;;;;;4990650;28;20052;-66
2021/11/21 02:03:06;;;;;;;63.10;25.92;;;8.10;90.10;;;;;;4990776;28;20124;-66
2021/11/21 02:05:32;;;;;;;42.07;24.13;;;8.10;90.00;;;;;;4992590;28;20050;-65
2021/11/21 02:07:58;;;;;;;59.60;24.00;;;8.10;89.90;;;;;;4993326;28;20030;-65
2021/11/21 02:10:24;;;;;;;62.50;25.50;;;8.10;90.00;;;;;;4993299;28;20030;-65
2021/11/21 02:12:50;;;;;;;48.80;23.57;;;8.10;90.00;;;;;;4993408;28;20109;-66
2021/11/21 02:15:19;;;;;;;58.50;25.07;;;8.10;89.80;;;;;;4993528;28;20438;-65
2021/11/21 02:17:45;;;;;;;69.93;24.90;;;8.10;89.60;;;;;;4993629;28;20030;-65
2021/11/21 02:20:17;;;;;;;58.83;24.67;;;8.00;89.50;;;;;;4994279;28;20460;-66
2021/11/21 02:22:43;;;;;;;50.97;24.67;;;8.00;89.60;;;;;;4997652;28;20033;-66
2021/11/21 02:25:10;;;;;;;60.93;24.37;;;8.00;89.50;;;;;;4997706;28;20034;-65
2021/11/21 02:27:36;;;;;;;54.57;25.37;;;8.00;89.60;;;;;;4997028;28;20467;-65
2021/11/21 02:30:04;;;;;;;52.10;24.73;;;8.00;89.50;;;;;;4997035;28;20058;-66
2021/11/21 02:32:29;;;;;;;47.37;24.97;;;8.00;89.60;;;;;;4996905;28;20019;-66
2021/11/21 02:34:55;;;;;;;56.73;25.13;;;8.00;89.80;;;;;;4997181;28;20502;-66
2021/11/21 02:37:21;;;;;;;55.90;25.47;;;8.00;89.90;;;;;;4996920;28;20505;-71
2021/11/21 02:39:47;;;;;;;75.97;24.43;;;8.00;90.00;;;;;;4996940;28;20545;-65
2021/11/21 02:42:27;;;;;;;53.70;25.90;;;8.00;90.00;;;;;;4996809;28;20038;-65
2021/11/21 02:44:53;;;;;;;46.93;25.53;;;8.00;89.70;;;;;;4996894;28;20029;-65
2021/11/21 02:47:19;;;;;;;60.50;24.73;;;8.00;89.50;;;;;;4996941;28;20034;-65
2021/11/21 02:49:45;;;;;;;46.37;25.53;;;7.90;88.70;;;;;;4996994;28;20030;-65
2021/11/21 02:52:11;;;;;;;55.50;26.00;;;7.90;88.80;;;;;;4996641;28;20030;-65
2021/11/21 02:54:37;;;;;;;44.07;25.33;;;7.90;88.80;;;;;;4997010;28;20081;-65
2021/11/21 02:57:02;;;;;;;54.47;25.73;;;7.90;88.90;;;;;;4996883;28;20045;-65
2021/11/21 02:59:29;;;;;;;39.00;23.50;;;7.80;88.70;;;;;;4996276;28;20356;-65
2021/11/21 03:01:55;;;;;;;61.27;24.47;;;7.80;88.90;;;;;;4996648;28;20073;-65
2021/11/21 03:04:23;;;;;;;35.40;22.43;;;7.80;88.80;;;;;;4996589;28;20022;-65
2021/11/21 03:06:50;;;;;;;56.33;23.33;;;7.80;88.60;;;;;;4996631;28;20026;-65
2021/11/21 03:09:22;;;;;;;43.40;21.97;;;7.70;88.30;;;;;;4996699;28;20037;-65
2021/11/21 03:11:52;;;;;;;;;;;7.60;88.20;;;;;;4996924;28;20026;-66
2021/11/21 03:14:19;;;;;;;41.07;22.33;;;7.60;88.20;;;;;;4996545;28;19968;-66
2021/11/21 03:16:47;;;;;;;72.80;23.30;;;7.60;88.00;;;;;;4996114;28;20029;-66
2021/11/21 03:19:13;;;;;;;55.07;22.60;;;7.60;88.00;;;;;;4996388;28;20050;-66
2021/11/21 03:21:39;;;;;;;41.47;22.10;;;7.50;87.90;;;;;;4996502;28;20031;-65
2021/11/21 03:24:05;;;;;;;52.13;21.80;;;7.50;88.10;;;;;;4996377;28;20030;-65
2021/11/21 03:26:31;;;;;;;58.33;22.53;;;7.40;88.30;;;;;;4996111;28;20375;-65
2021/11/21 03:28:57;;;;;;;49.00;21.40;;;7.40;88.40;;;;;;4996050;28;20068;-66
2021/11/21 03:31:22;;;;;;;37.57;22.03;;;7.40;88.70;;;;;;4996118;28;20069;-65
2021/11/21 03:33:48;;;;;;;47.33;22.13;;;7.30;88.70;;;;;;4996045;28;20033;-65
2021/11/21 03:36:14;;;;;;;32.57;21.90;;;7.30;88.70;;;;;;4996144;28;20022;-65
2021/11/21 03:38:40;;;;;;;52.13;21.77;;;7.20;88.80;;;;;;4996204;28;20029;-66
2021/11/21 03:41:06;;;;;;;35.63;21.63;;;7.20;88.90;;;;;;4996081;28;20058;-65
2021/11/21 03:43:32;;;;;;;42.40;21.87;;;7.20;89.50;;;;;;4996104;28;20034;-66
2021/11/21 03:45:58;;;;;;;43.03;21.50;;;7.20;89.00;;;;;;4995976;28;20033;-65
2021/11/21 03:48:24;;;;;;;37.43;21.57;;;7.20;89.00;;;;;;4995985;28;20391;-66
2021/11/21 03:50:50;;;;;;;47.60;22.27;;;7.20;89.10;;;;;;4996030;28;20442;-65
2021/11/21 03:53:18;;;;;;;41.87;21.97;;;7.20;89.00;;;;;;4996016;28;20031;-66
2021/11/21 03:55:44;;;;;;;42.47;22.10;;;7.20;89.10;;;;;;4995877;28;20035;-76
2021/11/21 03:58:10;;;;;;;40.93;21.20;;;7.20;89.00;;;;;;4995793;28;20150;-65
2021/11/21 04:00:36;;;;;;;50.07;21.67;;;7.20;88.90;;;;;;4995180;28;20174;-65
2021/11/21 04:03:05;;;;;;;44.93;21.83;;;7.20;88.70;;;;;;4995574;28;20055;-66
2021/11/21 04:05:31;;;;;;;38.50;20.27;;;7.20;88.40;;;;;;4995564;28;20037;-66
2021/11/21 04:07:57;;;;;;;35.93;21.10;;;7.20;88.20;;;;;;4995549;28;20070;-65
2021/11/21 04:10:23;;;;;;;37.10;18.37;;;7.20;88.00;;;;;;4995339;28;20037;-66
2021/11/21 04:12:50;;;;;;;49.63;18.73;;;7.20;87.30;;;;;;4995357;28;20518;-66
2021/11/21 04:15:15;;;;;;;38.83;18.80;;;7.10;86.60;;;;;;4995384;28;20407;-66
2021/11/21 04:17:42;;;;;;;48.47;18.73;;;7.10;86.70;;;;;;4995413;28;20027;-68
2021/11/21 04:20:10;;;;;;;62.37;19.43;;;7.00;86.80;;;;;;4995679;28;20108;-66
2021/11/21 04:22:36;;;;;;;43.20;18.90;;;7.00;87.00;;;;;;4995242;28;20061;-65
2021/11/21 04:25:03;;;;;;;49.37;18.33;;;6.90;87.10;;;;;;4995144;28;20053;-65
2021/11/21 04:27:28;;;;;;;42.87;19.20;;;6.90;87.30;;;;;;4994997;28;20030;-65
2021/11/21 04:29:55;;;;;;;55.80;20.20;;;6.90;87.60;;;;;;4995256;28;20029;-65
2021/11/21 04:32:22;;;;;;;42.00;19.53;;;6.80;87.80;;;;;;4994982;28;20059;-66
2021/11/21 04:34:49;;;;;;;49.00;19.33;;;6.80;87.90;;;;;;4994797;28;20429;-65
2021/11/21 04:37:15;;;;;;;45.57;19.30;;;6.80;88.20;;;;;;4995064;28;20031;-66
2021/11/21 04:39:40;;;;;;;46.30;20.30;;;6.80;88.30;;;;;;4994909;28;20033;-65
2021/11/21 04:42:06;;;;;;;45.47;20.13;;;6.80;88.20;;;;;;4994493;28;20097;-65
2021/11/21 04:44:32;;;;;;;45.50;20.17;;;6.80;88.50;;;;;;4994227;28;20027;-65
2021/11/21 04:46:57;;;;;;;42.93;20.93;;;6.80;88.70;;;;;;4994926;28;20058;-65
2021/11/21 04:49:23;;;;;;;39.53;21.53;;;6.80;88.80;;;;;;4994744;28;20030;-65
2021/11/21 04:51:49;;;;;;;39.97;21.70;;;6.90;88.90;;;;;;4994569;28;20034;-65
2021/11/21 04:54:17;;;;;;;46.03;21.83;;;6.90;88.90;;;;;;4994596;28;20030;-66
2021/11/21 04:56:45;;;;;;;35.60;21.50;;;6.90;88.90;;;;;;4994226;28;20019;-65
2021/11/21 04:59:15;;;;;;;36.37;20.03;;;6.90;88.80;;;;;;4994307;28;20057;-66
2021/11/21 05:01:42;;;;;;;37.63;20.03;;;6.90;88.80;;;;;;4994461;28;20041;-67
2021/11/21 05:04:08;;;;;;;39.43;20.40;;;6.90;88.80;;;;;;4994669;28;20391;-66
2021/11/21 05:06:34;;;;;;;40.70;20.30;;;6.90;88.70;;;;;;4994441;28;20022;-66
2021/11/21 05:09:01;;;;;;;40.57;21.17;;;7.00;88.70;;;;;;4994417;28;20042;-65
2021/11/21 05:11:27;;;;;;;36.30;19.40;;;7.00;88.60;;;;;;4994520;28;20019;-65
2021/11/21 05:13:53;;;;;;;36.13;18.73;;;7.00;88.50;;;;;;4994390;28;20022;-65
2021/11/21 05:16:18;;;;;;;36.80;19.60;;;7.00;88.60;;;;;;4994293;28;20029;-66
2021/11/21 05:18:44;;;;;;;42.83;20.67;;;7.00;88.50;;;;;;4994237;28;20026;-65
2021/11/21 05:21:10;;;;;;;38.20;20.30;;;6.90;88.60;;;;;;4994175;28;20026;-65
2021/11/21 05:23:35;;;;;;;36.37;19.07;;;7.00;88.50;;;;;;4994266;28;20060;-65
2021/11/21 05:26:01;;;;;;;38.37;20.07;;;7.00;88.40;;;;;;4994356;28;20459;-65
2021/11/21 05:28:27;;;;;;;40.80;19.00;;;7.00;88.60;;;;;;4993983;28;20022;-65
2021/11/21 05:30:52;;;;;;;41.80;20.03;;;6.90;88.50;;;;;;4993997;28;20022;-66
2021/11/21 05:33:18;;;;;;;42.83;20.73;;;6.90;88.70;;;;;;4994093;28;20022;-66
2021/11/21 05:35:44;;;;;;;44.27;20.80;;;6.90;88.80;;;;;;4994056;28;20034;-65
2021/11/21 05:38:10;;;;;;;36.20;19.23;;;6.90;88.90;;;;;;4994037;28;20022;-65
2021/11/21 05:40:36;;;;;;;41.73;19.60;;;6.90;88.90;;;;;;4993505;28;20022;-65
2021/11/21 05:43:02;;;;;;;42.43;19.67;;;6.90;88.90;;;;;;4993551;28;20030;-65
2021/11/21 05:45:29;;;;;;;43.40;20.33;;;6.90;88.90;;;;;;4994072;28;20018;-65
2021/11/21 05:47:55;;;;;;;37.17;19.87;;;6.90;88.90;;;;;;4993968;28;20061;-65
2021/11/21 05:50:21;;;;;;;36.20;19.57;;;6.90;88.90;;;;;;4993744;28;20030;-65
2021/11/21 05:52:49;;;;;;;33.23;19.23;;;6.90;88.90;;;;;;4993794;28;20022;-65
2021/11/21 05:55:17;;;;;;;37.53;19.20;;;6.90;88.80;;;;;;4993828;28;20027;-66
2021/11/21 05:57:43;;;;;;;36.87;17.60;;;6.90;88.60;;;;;;4993855;28;20100;-65
2021/11/21 06:00:13;;;;;;;36.00;17.67;;;6.90;88.10;;;;;;4993719;28;20106;-65
2021/11/21 06:02:39;;;;;;;32.87;17.53;;;6.90;87.80;;;;;;4993599;28;20061;-65
2021/11/21 06:05:06;;;;;;;29.83;18.73;;;6.80;87.90;;;;;;4993475;28;20053;-65
2021/11/21 06:07:32;;;;;;;27.00;17.17;;;6.80;88.20;;;;;;4990485;28;20553;-65
2021/11/21 06:09:58;;;;;;;28.10;16.50;;;6.80;88.30;;;;;;4990700;28;20070;-65
2021/11/21 06:12:24;;;;;;;29.20;16.27;;;6.80;88.30;;;;;;4992526;28;20108;-66
2021/11/21 06:14:50;;;;;;;26.23;16.00;;;6.70;88.30;;;;;;4993583;28;20073;-65
2021/11/21 06:17:15;;;;;;;23.23;14.93;;;6.80;88.50;;;;;;4993368;28;20080;-65
2021/11/21 06:19:41;;;;;;;24.27;15.80;;;6.80;88.50;;;;;;4993673;28;20031;-65
2021/11/21 06:22:07;;;;;;;23.83;15.97;;;6.80;88.60;;;;;;4993344;28;20038;-65
2021/11/21 06:24:33;;;;;;;24.43;15.10;;;6.80;88.50;;;;;;4993416;28;20394;-65
2021/11/21 06:26:59;;;;;;;25.30;14.90;;;6.80;88.40;;;;;;4993310;28;20463;-65
2021/11/21 06:29:25;;;;;;;20.47;14.77;;;6.80;88.40;;;;;;4993297;28;20040;-65
2021/11/21 06:31:51;;;;;;;21.20;15.37;;;6.80;88.20;;;;;;4991191;28;20030;-65
2021/11/21 06:34:17;;;;;;;24.63;15.97;;;6.80;88.10;;;;;;4990565;28;20041;-65
2021/11/21 06:36:44;;;;;;;22.70;15.20;;;6.80;88.10;;;;;;4990712;28;20026;-65
2021/11/21 06:39:10;;;;;;;24.27;15.97;;;6.80;88.10;;;;;;4992729;28;20034;-72
2021/11/21 06:41:37;;;;;;;23.70;15.67;;;6.80;88.10;;;;;;4992906;28;20447;-66
2021/11/21 06:44:05;;;;;;;22.93;15.43;;;6.80;88.10;;;;;;4993068;28;20033;-66
2021/11/21 06:46:31;;;;;;;28.67;16.67;;;6.80;87.90;;;;;;4992765;28;20026;-66
2021/11/21 06:48:57;;;;;;;23.83;15.63;;;6.80;88.20;;;;;;4993064;28;20471;-65
2021/11/21 06:51:23;;;;;;;22.00;14.83;;;6.80;88.30;;;;;;4992886;28;20034;-66
2021/11/21 06:53:49;;;;;;;19.00;14.87;;;6.80;88.30;;;;;;4992857;28;20467;-66
2021/11/21 06:56:16;;;;;;;21.60;15.53;;;6.80;88.20;;;;;;4993163;28;20080;-65
2021/11/21 06:58:43;;;;;;;20.33;14.80;;;6.80;88.10;;;;;;4993381;28;20026;-66
2021/11/21 07:01:09;;;;;;;22.87;15.83;;;6.80;88.20;;;;;;4992317;28;20077;-66
2021/11/21 07:03:35;;;;;;;21.23;16.10;;;6.80;88.30;;;;;;4992625;28;20479;-75
2021/11/21 07:06:01;;;;;;;26.13;15.77;;;6.90;88.30;;;;;;4993798;28;20030;-65
2021/11/21 07:08:27;;;;;;;23.97;15.80;;;6.90;88.20;;;;;;4996291;28;20030;-65
2021/11/21 07:10:53;;;;;;;23.17;16.60;;;6.90;88.30;;;;;;4996636;28;20026;-66
2021/11/21 07:13:21;;;;;;;23.87;16.50;;;6.90;88.50;;;;;;4996621;28;20034;-66
2021/11/21 07:15:47;;;;;;;25.23;17.13;;;7.00;88.60;;;;;;4995910;28;20037;-66
2021/11/21 07:18:13;;;;;;;24.43;16.93;;;7.00;88.70;;;;;;4996159;28;20030;-66
2021/11/21 07:20:39;;;;;;;26.77;17.57;;;7.00;88.50;;;;;;4996197;28;20026;-66
2021/11/21 07:23:05;;;;;;;23.70;16.40;;;7.00;88.60;;;;;;4996577;28;20038;-65
2021/11/21 07:25:31;;;;;;;23.70;17.27;;;7.10;88.60;;;;;;4996174;28;20037;-65
2021/11/21 07:27:59;;;;;;;26.27;17.43;;;7.10;88.50;;;;;;4995943;28;20486;-67
2021/11/21 07:30:25;;;;;;;25.53;18.37;;;7.10;88.50;;;;;;4995921;28;20023;-66
2021/11/21 07:32:53;;;;;;;26.83;18.17;;;7.10;88.60;;;;;;4993312;28;20467;-66
2021/11/21 07:35:21;;;;;;;29.97;19.77;;;7.10;88.70;;;;;;4991339;28;20046;-67
2021/11/21 07:37:46;;;;;;;29.60;19.77;;;7.20;88.70;;;;;;4991505;28;20046;-65
2021/11/21 07:40:14;;;;;;;34.53;20.23;;;7.20;88.70;;;;;;4994610;28;20030;-66
2021/11/21 07:42:43;;;;;;;29.57;19.10;;;7.20;88.90;;;;;;5011528;28;20449;-66
2021/11/21 07:45:10;;;;;;;32.67;21.07;;;7.20;88.90;;;;;;5014868;28;20057;-66
2021/11/21 07:47:36;;;;;;;28.63;19.40;;;7.20;89.00;;;;;;5015222;28;20062;-66
2021/11/21 07:50:03;;;;;;;29.07;18.50;;;7.30;89.20;;;;;;5014190;28;20112;-68
2021/11/21 07:52:28;;;;;;;33.03;19.67;;;7.30;89.20;;;;;;5013467;28;20103;-65
2021/11/21 07:54:54;;;;;;;36.53;22.03;;;7.30;89.20;;;;;;5015411;28;20018;-75
2021/11/21 07:57:20;;;;;;;33.67;21.23;;;7.30;89.20;;;;;;5014728;28;20402;-67
2021/11/21 07:59:46;;;;;;;33.03;21.53;;;7.40;89.50;;;;;;5014797;28;20037;-75
2021/11/21 08:02:12;;;;;;;34.20;21.07;;;7.40;89.70;;;;;;5014879;28;20437;-69
2021/11/21 08:04:38;;;;;;;34.73;22.00;;;7.40;89.70;;;;;;5014379;28;20364;-66
2021/11/21 08:07:07;;;;;;;35.50;22.87;;;7.40;89.60;;;;;;5014270;28;20037;-66
2021/11/21 08:09:34;;;;;;;33.70;22.07;;;7.50;89.80;;;;;;5014840;28;20032;-67
2021/11/21 08:11:59;;;;;;;34.23;21.63;;;7.50;89.80;;;;;;5014654;28;20036;-66
2021/11/21 08:14:25;;;;;;;37.20;22.00;;;7.50;89.60;;;;;;5014679;28;20041;-77
2021/11/21 08:16:51;;;;;;;36.10;23.07;;;7.60;89.70;;;;;;5014197;28;20026;-68
2021/11/21 08:19:16;;;;;;;39.23;23.17;;;7.60;89.80;;;;;;5013724;28;20053;-68
2021/11/21 08:21:42;;;;;;;39.87;23.70;;;7.60;89.80;;;;;;5014044;28;20030;-66
2021/11/21 08:24:08;;;;;;;38.83;22.93;;;7.60;89.80;;;;;;5014288;28;20025;-68
2021/11/21 08:26:35;;;;;;;39.73;23.53;;;7.60;89.70;;;;;;5014332;28;20068;-74
2021/11/21 08:29:01;;;;;;;38.37;23.67;;;7.70;89.80;;;;;;5014244;28;20030;-67
2021/11/21 08:31:27;;;;;;;41.67;25.07;;;7.70;89.80;;;;;;5014387;28;20030;-68
2021/11/21 08:33:53;;;;;;;37.57;23.80;;;7.70;89.80;;;;;;5014576;28;20049;-68
2021/11/21 08:36:18;;;;;;;39.17;24.10;;;7.70;89.90;;;;;;5014639;28;20038;-69
2021/11/21 08:38:44;;;;;;;37.33;23.53;;;7.80;89.90;;;;;;5014167;28;20026;-69
2021/11/21 08:41:10;;;;;;;39.37;24.00;;;7.80;90.00;;;;;;5014096;28;20060;-69
2021/11/21 08:43:36;;;;;;;34.77;23.27;;;7.80;90.00;;;;;;5014512;28;20112;-68
2021/11/21 08:46:01;;;;;;;39.97;23.87;;;7.80;90.00;;;;;;4996898;28;20500;-68
2021/11/21 08:48:27;;;;;;;35.57;23.10;;;7.90;90.00;;;;;;5014213;28;20026;-68
2021/11/21 08:50:53;;;;;;;35.10;23.67;;;7.80;90.00;;;;;;5014168;28;20032;-68
2021/11/21 08:53:20;;;;;;;37.37;23.37;;;7.90;90.00;;;;;;5014050;28;20522;-68
2021/11/21 08:55:46;;;;;;;38.63;24.30;;;7.90;89.90;;;;;;5014334;28;20034;-68
2021/11/21 08:58:12;;;;;;;38.30;25.17;;;7.90;90.00;;;;;;5013902;28;20029;-69
2021/11/21 09:00:38;;;;;;;40.17;25.87;;;7.90;90.00;;;;;;5013696;28;20406;-68
2021/11/21 09:03:03;;;;;;;43.40;26.47;;;8.00;90.00;;;;;;5013479;28;20084;-69
2021/11/21 09:05:30;;;;;;;43.80;26.57;;;8.00;90.00;;;;;;5011400;28;20028;-68
2021/11/21 09:07:55;;;;;;;39.57;25.23;;;8.00;90.20;;;;;;5011182;28;20641;-68
2021/11/21 09:10:23;;;;;;;45.63;28.87;;;8.00;89.70;;;;;;5013714;28;20034;-68
2021/11/21 09:12:49;;;;;;;39.33;25.93;;;8.00;89.60;;;;;;5012713;28;20109;-69
2021/11/21 09:15:18;;;;;;;42.70;27.20;;;8.10;89.60;;;;;;5013633;28;20089;-69
2021/11/21 09:17:50;;;;;;;44.83;27.53;;;8.10;89.50;;;;;;5013808;28;20033;-69
2021/11/21 09:20:16;;;;;;;42.13;27.77;;;8.10;89.50;;;;;;5013248;28;20049;-69
2021/11/21 09:22:42;;;;;;;44.90;27.53;;;8.10;89.30;;;;;;5013631;28;20070;-69
2021/11/21 09:25:09;;;;;;;40.73;26.23;;;8.10;89.20;;;;;;5013499;28;20478;-69
2021/11/21 09:27:36;;;;;;;46.30;26.63;;;8.20;89.40;;;;;;5013540;28;20421;-69
2021/11/21 09:30:04;;;;;;;45.90;27.93;;;8.20;89.50;;;;;;5013011;28;20057;-69
2021/11/21 09:32:30;;;;;;;43.70;27.00;;;8.20;89.30;;;;;;5013613;28;20029;-69
2021/11/21 09:34:56;;;;;;;41.97;27.23;;;8.20;89.20;;;;;;5013578;28;20113;-69
2021/11/21 09:37:21;;;;;;;42.57;27.60;;;8.20;89.40;;;;;;5012935;28;20034;-69
2021/11/21 09:39:47;;;;;;;48.13;29.70;;;8.30;89.10;;;;;;5012597;28;20470;-69
2021/11/21 09:42:14;;;;;;;46.00;28.83;;;8.30;89.10;;;;;;5011769;28;20057;-69
2021/11/21 09:44:40;;;;;;;45.87;26.87;;;8.30;89.00;;;;;;5012854;28;20022;-69
2021/11/21 09:47:06;;;;;;;48.43;28.40;;;8.30;88.90;;;;;;5013116;28;20060;-69
2021/11/21 09:49:32;;;;;;;45.43;28.03;;;8.40;89.30;;;;;;5012952;28;20402;-69
2021/11/21 09:51:58;;;;;;;43.07;26.90;;;8.40;89.30;;;;;;5013525;28;20030;-69
2021/11/21 09:54:28;;;;;;;43.83;26.30;;;8.40;88.90;;;;;;5012995;28;20033;-68
2021/11/21 09:56:55;;;;;;;48.80;27.57;;;8.40;88.70;;;;;;5013149;28;20021;-68
2021/11/21 10:00:01;;;;;;;73.07;30.03;;;8.40;88.50;;;;;;5010292;28;20033;-69
2021/11/21 10:02:50;;;;;;;46.20;27.10;;;8.40;88.00;;;;;;4930558;29;20534;-69
2021/11/21 10:05:22;;;;;;;42.97;27.37;;;8.40;87.80;;;;;;4996990;28;20048;-69
2021/11/21 10:07:48;;;;;;;47.67;28.07;;;8.50;87.60;;;;;;5012923;28;20050;-68
2021/11/21 10:10:18;;;;;;;43.93;27.53;;;8.50;87.40;;;;;;5012913;28;20088;-69
2021/11/21 10:12:44;;;;;;;47.93;28.10;;;8.50;87.40;;;;;;5012278;28;20049;-69
2021/11/21 10:15:17;;;;;;;47.20;28.10;;;8.50;87.50;;;;;;5012751;28;20026;-69
2021/11/21 10:17:49;;;;;;;;;;;8.50;87.20;;;;;;5013263;28;20022;-68
2021/11/21 10:20:28;;;;;;;55.20;29.23;;;8.60;87.00;;;;;;5012607;28;19909;-69
2021/11/21 10:23:22;;;;;;;48.47;28.50;;;8.60;87.80;;;;;;5012926;28;20026;-70
2021/11/21 10:25:53;;;;;;;50.57;28.83;;;8.60;87.60;;;;;;5010074;28;20034;-68
2021/11/21 10:28:24;;;;;;;51.70;30.20;;;8.60;87.50;;;;;;4993648;28;20060;-68
2021/11/21 10:30:57;;;;;;;48.03;29.53;;;8.60;87.50;;;;;;5012387;28;20062;-68
2021/11/21 10:33:28;;;;;;;44.83;28.87;;;8.70;88.00;;;;;;4995443;28;20383;-69
2021/11/21 10:36:01;;;;;;;49.23;29.00;;;8.70;87.70;;;;;;5012681;28;20026;-69
2021/11/21 10:38:32;;;;;;;45.53;28.95;;;8.70;87.30;;;;;;5012809;28;20037;-69
2021/11/21 10:40:59;;;;;;;48.83;30.00;;;8.70;87.30;;;;;;5013203;28;20026;-69
2021/11/21 10:43:24;;;;;;;45.73;28.00;;;8.70;87.00;;;;;;5016380;28;20406;-69
2021/11/21 10:45:51;;;;;;;44.03;29.47;;;8.70;86.70;;;;;;5015024;28;20139;-70
2021/11/21 10:48:26;;;;;;;52.03;30.17;;;8.80;86.40;;;;;;5014091;28;20052;-67
2021/11/21 10:50:53;;;;;;;50.57;31.10;;;8.80;86.70;;;;;;5014969;28;20018;-68
2021/11/21 10:53:20;;;;;;;51.47;30.10;;;8.80;86.70;;;;;;5016023;28;20033;-68
2021/11/21 10:55:46;;;;;;;49.10;30.50;;;8.80;86.80;;;;;;5016235;28;20069;-68
2021/11/21 10:58:14;;;;;;;46.53;28.60;;;8.80;86.80;;;;;;5016326;28;20049;-68
2021/11/21 11:00:41;;;;;;;53.87;28.10;;;8.80;86.70;;;;;;5015182;28;20128;-68
2021/11/21 11:03:21;;;;;;;49.43;29.17;;;8.80;86.60;;;;;;5016058;28;20041;-69
2021/11/21 11:05:47;;;;;;;51.13;28.60;;;8.80;86.30;;;;;;5016053;28;20022;-69
2021/11/21 11:08:28;;;;;;;51.57;29.30;;;8.80;86.50;;;;;;5016085;28;20034;-69
2021/11/21 11:10:54;;;;;;;52.73;30.43;;;8.90;86.50;;;;;;5016047;28;20025;-68
2021/11/21 11:13:21;;;;;;;53.87;30.87;;;8.90;86.30;;;;;;5013285;28;20029;-68
2021/11/21 11:15:47;;;;;;;51.90;31.97;;;8.90;86.30;;;;;;4994518;28;20022;-70
2021/11/21 11:18:16;;;;;;;49.57;31.50;;;8.90;86.20;;;;;;5013168;28;20034;-70
2021/11/21 11:20:44;;;;;;;58.23;33.43;;;9.00;86.30;;;;;;5015573;28;20097;-69
2021/11/21 11:23:13;;;;;;;50.30;31.40;;;9.10;86.40;;;;;;4998179;28;20033;-68
2021/11/21 11:25:39;;;;;;;51.83;32.43;;;9.00;86.50;;;;;;5015967;28;20018;-68
2021/11/21 11:28:10;;;;;;;55.20;33.20;;;9.10;86.40;;;;;;5015844;28;20520;-68
2021/11/21 11:30:38;;;;;;;55.37;33.17;;;9.20;86.50;;;;;;5015741;28;20029;-68
2021/11/21 11:33:13;;;;;;;53.93;31.70;;;9.10;86.40;;;;;;5015610;28;20428;-67
2021/11/21 11:35:47;;;;;;;53.53;30.77;;;9.20;86.40;;;;;;5015260;28;20041;-67
2021/11/21 11:38:28;;;;;;;52.20;32.27;;;9.20;86.50;;;;;;5015424;28;20501;-68
2021/11/21 11:40:58;;;;;;;56.67;31.43;;;9.30;86.40;;;;;;5015196;28;20109;-68
2021/11/21 11:43:29;;;;;;;50.40;31.50;;;9.30;86.50;;;;;;5012662;28;20034;-68
2021/11/21 11:46:06;;;;;;;55.37;31.27;;;9.30;86.70;;;;;;5012332;28;20133;-68
2021/11/21 11:48:33;;;;;;;52.43;31.40;;;9.40;86.70;;;;;;5014707;28;20022;-68
2021/11/21 11:51:06;;;;;;;48.77;31.03;;;9.40;86.60;;;;;;5015092;28;20014;-67
2021/11/21 11:53:44;;;;;;;55.45;31.95;;;9.40;86.40;;;;;;5015280;28;20033;-68
2021/11/21 11:56:24;;;;;;;57.80;32.07;;;9.40;86.10;;;;;;5015527;28;20209;-67
2021/11/21 11:59:01;;;;;;;57.00;32.47;;;9.40;86.00;;;;;;5013059;28;20410;-67
2021/11/21 12:01:38;;;;;;;52.87;31.83;;;9.40;85.90;;;;;;5012102;28;20056;-67
2021/11/21 12:04:09;;;;;;;56.10;32.13;;;9.40;85.90;;;;;;5013891;28;20030;-68
2021/11/21 12:06:47;;;;;;;57.83;32.37;;;9.50;85.90;;;;;;5014894;28;20022;-68
2021/11/21 12:09:19;;;;;;;52.63;31.00;;;9.50;85.90;;;;;;5014760;28;20084;-68
2021/11/21 12:11:55;;;;;;;60.40;31.37;;;9.50;86.00;;;;;;5015495;28;20033;-67
2021/11/21 12:14:25;;;;;;;57.30;31.57;;;9.50;86.00;;;;;;5014869;28;20076;-68
2021/11/21 12:17:08;;;;;;;58.10;31.10;;;9.50;85.90;;;;;;5014896;28;20492;-66
2021/11/21 12:19:47;;;;;;;51.88;29.77;;;9.50;85.90;;;;;;5011851;28;20030;-68
2021/11/21 12:22:34;;;;;;;57.87;32.00;;;9.50;85.80;;;;;;5011597;28;20128;-68
2021/11/21 12:25:25;;;;;;;57.03;31.97;;;9.50;85.80;;;;;;5013480;28;20076;-68
2021/11/21 12:28:00;;;;;;;60.90;30.27;;;9.50;86.50;;;;;;5014519;28;20084;-68
2021/11/21 12:30:29;;;;;;;58.43;31.13;;;9.50;86.90;;;;;;5014486;28;20061;-68
2021/11/21 12:32:58;;;;;;;65.40;33.53;;;9.50;87.20;;;;;;5014308;28;20263;-71
2021/11/21 12:35:25;;;;;;;55.50;31.10;;;9.50;87.00;;;;;;5014508;28;20018;-67
2021/11/21 12:37:55;;;;;;;59.87;30.70;;;9.40;86.70;;;;;;5014477;28;20153;-67
2021/11/21 12:40:39;;;;;;;59.80;30.43;;;9.50;86.50;;;;;;5014306;28;20029;-67
2021/11/21 12:43:09;;;;;;;58.70;30.00;;;9.50;86.40;;;;;;5014684;28;20368;-68